Juneau, AK

2:06 AM AKDT on July 25, 2016 (GMT -0800)
Juneau International | | Change Station

Elev 23 ft 58.35 °N, 134.58 °W | Updated 13 minutes ago

Light Rain
Light Rain Mist
53 °F
Feels Like 53 °F
N
10
Wind Variable Wind from East

Today
High -- | Low -- °F
--% Chance of Precip.
Yesterday
High -- | Low -- °F
Precip. -- in
Pressure 30.07 in
Visibility 6.0 miles
Clouds Few 400 ft
Mostly Cloudy 2800 ft
Overcast 3500 ft
Dew Point 52 °F
Humidity 96%
Rainfall 0.02 in
Snow Depth Not available.
4:36 AM 9:31 PM
Waning Gibbous, 67% visible
METAR PAJN 250953Z 08009KT 6SM -RA BR FEW004 BKN028 OVC035 12/11 A3007 RMK AO2 SLP182 P0002 T01170111 $
Pressure 30.07 in
Visibility 6.0 miles
Clouds Few 400 ft
Mostly Cloudy 2800 ft
Overcast 3500 ft
Dew Point 52 °F
Humidity 96%
Rainfall 0.02 in
Snow Depth Not available.
4:36 AM 9:31 PM
Waning Gibbous, 67% visible
METAR PAJN 250953Z 08009KT 6SM -RA BR FEW004 BKN028 OVC035 12/11 A3007 RMK AO2 SLP182 P0002 T01170111 $

10-Day Weather Forecast

Almanac

Astronomy

Jul. 25, 2016 Rise Set
Actual Time
Civil Twilight
Nautical Twilight
Astronomical Twilight
Moon
Length of Visible Light
Length of Day
Tomorrow will be .
, % of the Moon is Illuminated

Today's Extremes

State Highs State Lows

Community

WunderPhotos

Upload Photos

1,927,289 photos uploaded!

WunderBlog® & News

Nearby

Air Quality

  Air Quality AQ Index Pollutant
Not available.

Snow Depth

Station Depth Elevation

Earthquake Activity

City Distance Mag. Time & Date
Minimum magnitude displayed is 2.5.

Coastal Water Temperatures

Place Temperature

Stations

Nearby Weather Stations

Station Location Temp. Windchill Dew Point Humidity Wind Precip. Elev Updated Type
                   

Watches & Warnings

There are currently no watches in effect.